Astin, Texas
Current Conditions -  °F | °C
As of 11:55 AM on Friday 19 Dec 2014 (Local Time) from KLHB Reporting Station
Overcast Overcast  
Wind Chill: 54°   Ceiling: 1000
Heat Index: 54°   Visibility: 10mi
Dew Point: 51°   Wind: 6mph
Humidity: 89%   Direction: 340°NNW
Pressure: 30.13"   Gusts: NA
Location:  30.8324°N, 96.5749°W
Report Text: KLHB 191755Z AUTO 34005KT 10SM OVC010 12/11 A3013 RMK AO2 60033 T01220105 10125 20090
Loading
Personal Weather Stations






























Interactive Weather Map New forecast layout! Learn more

10-Day Weather Forecast

Advertisements
Track Severe Weather on mobile